createdAt,value
2023-01-07T00:01:59.938Z,102036.56
2023-01-07T00:04:27.366Z,102042.44
2023-01-07T00:06:55.063Z,102025.16
2023-01-07T00:09:22.885Z,102025.63
2023-01-07T00:11:50.574Z,102023.06
2023-01-07T00:14:18.608Z,102028.25
2023-01-07T00:16:46.455Z,102019.13
2023-01-07T00:19:15.331Z,102021.41
2023-01-07T00:21:42.901Z,102028.63
2023-01-07T00:24:11.374Z,102028.03
2023-01-07T00:26:39.772Z,102024.38
2023-01-07T00:29:07.959Z,102026.94
2023-01-07T00:31:36.843Z,102020.50
2023-01-07T00:34:04.207Z,102029.34
2023-01-07T00:36:33.083Z,102027.91
2023-01-07T00:39:02.866Z,102029.50
2023-01-07T00:41:30.411Z,102026.09
2023-01-07T00:43:57.816Z,102019.41
2023-01-07T00:46:26.017Z,102017.78
2023-01-07T00:48:53.372Z,102010.19
2023-01-07T00:51:21.294Z,102010.19
2023-01-07T00:53:48.900Z,102013.03
2023-01-07T00:56:17.831Z,102007.31
2023-01-07T00:58:46.102Z,102008.78
2023-01-07T01:01:13.829Z,102008.78
2023-01-07T01:03:41.530Z,102002.28
2023-01-07T01:06:13.674Z,102000.06
2023-01-07T01:08:42.909Z,102013.53
2023-01-07T01:11:11.906Z,102003.31
2023-01-07T01:13:39.412Z,102003.50
2023-01-07T01:16:08.104Z,102005.28
2023-01-07T01:18:36.269Z,102004.69
2023-01-07T01:21:05.240Z,102004.16
2023-01-07T01:23:32.530Z,101996.19
2023-01-07T01:26:04.049Z,102004.50
2023-01-07T01:28:31.628Z,101999.66
2023-01-07T01:30:59.472Z,102001.81
2023-01-07T01:33:31.660Z,102005.34
2023-01-07T01:35:59.094Z,102009.28
2023-01-07T01:38:26.839Z,102001.16
2023-01-07T01:40:54.201Z,102001.63
2023-01-07T01:43:30.977Z,102001.16
2023-01-07T01:46:09.076Z,102005.66
2023-01-07T01:48:38.589Z,102006.28
2023-01-07T01:51:07.220Z,102002.75
2023-01-07T01:53:35.875Z,102000.81
2023-01-07T01:56:07.940Z,102000.81
2023-01-07T01:58:37.679Z,101996.81
2023-01-07T02:01:05.925Z,102002.28
2023-01-07T02:03:34.560Z,101997.75
2023-01-07T02:06:02.679Z,101997.28
2023-01-07T02:08:30.685Z,102003.31
2023-01-07T02:11:19.770Z,101995.72
2023-01-07T02:13:47.713Z,101995.66
2023-01-07T02:16:27.526Z,101993.63
2023-01-07T02:19:15.349Z,101991.66
2023-01-07T02:22:01.518Z,101993.34
2023-01-07T02:24:47.636Z,101990.41
2023-01-07T02:27:15.195Z,101992.78
2023-01-07T02:29:46.279Z,101985.72
2023-01-07T02:32:20.555Z,101989.03
2023-01-07T02:34:47.913Z,101983.78
2023-01-07T02:37:27.761Z,101984.00
2023-01-07T02:39:58.029Z,101978.31
2023-01-07T02:42:31.766Z,101980.66
2023-01-07T02:45:11.777Z,101976.03
2023-01-07T02:47:43.769Z,101974.69
2023-01-07T02:50:11.153Z,101972.59
2023-01-07T02:52:38.572Z,101970.38
2023-01-07T02:55:12.424Z,101965.59
2023-01-07T02:57:49.224Z,101969.84
2023-01-07T03:00:35.808Z,101968.50
2023-01-07T03:03:03.756Z,101963.72
2023-01-07T03:05:40.022Z,101966.47
2023-01-07T03:08:07.782Z,101961.16
2023-01-07T03:10:37.982Z,101958.63
2023-01-07T03:13:15.925Z,101965.53
2023-01-07T03:15:43.305Z,101960.25
2023-01-07T03:18:14.996Z,101965.28
2023-01-07T03:20:44.429Z,101965.84
2023-01-07T03:23:14.403Z,101962.91
2023-01-07T03:25:46.580Z,101966.84
2023-01-07T03:28:17.312Z,101963.16
2023-01-07T03:30:45.775Z,101966.84
2023-01-07T03:33:39.777Z,101962.38
2023-01-07T03:36:09.066Z,101962.19
2023-01-07T03:38:37.515Z,101958.09
2023-01-07T03:41:05.500Z,101960.53
2023-01-07T03:43:32.853Z,101952.28
2023-01-07T03:46:00.972Z,101953.38
2023-01-07T03:48:29.130Z,101955.50
2023-01-07T03:50:56.704Z,101952.81
2023-01-07T03:53:24.214Z,101958.84
2023-01-07T03:55:52.753Z,101955.94
2023-01-07T03:58:20.088Z,101957.59
2023-01-07T04:00:47.514Z,101948.41
2023-01-07T04:03:18.988Z,101949.44
2023-01-07T04:05:47.893Z,101944.19
2023-01-07T04:08:15.982Z,101949.59
2023-01-07T04:10:43.450Z,101947.38
2023-01-07T04:13:12.745Z,101943.44
2023-01-07T04:15:42.620Z,101943.91
2023-01-07T04:18:10.465Z,101951.28
2023-01-07T04:20:38.223Z,101941.28
2023-01-07T04:23:06.010Z,101942.19
2023-01-07T04:25:33.387Z,101946.66
2023-01-07T04:28:04.074Z,101940.22
2023-01-07T04:30:33.325Z,101944.81
2023-01-07T04:33:00.891Z,101943.97
2023-01-07T04:35:29.019Z,101934.28
2023-01-07T04:37:56.835Z,101937.75
2023-01-07T04:40:24.392Z,101932.13
2023-01-07T04:42:52.752Z,101944.03
2023-01-07T04:45:20.723Z,101939.25
2023-01-07T04:47:48.317Z,101944.72
2023-01-07T04:50:15.883Z,101946.06
2023-01-07T04:52:43.354Z,101941.03
2023-01-07T04:55:11.307Z,101940.56
2023-01-07T04:57:39.065Z,101938.84
2023-01-07T05:00:07.511Z,101943.53
2023-01-07T05:02:35.749Z,101951.50
2023-01-07T05:05:03.165Z,101941.88
2023-01-07T05:07:31.111Z,101939.00
2023-01-07T05:10:00.185Z,101941.28
2023-01-07T05:12:28.810Z,101943.53
2023-01-07T05:14:56.208Z,101942.38
2023-01-07T05:17:23.805Z,101942.53
2023-01-07T05:19:52.127Z,101949.63
2023-01-07T05:22:19.512Z,101946.66
2023-01-07T05:24:46.832Z,101942.16
2023-01-07T05:27:14.264Z,101941.03
2023-01-07T05:29:41.754Z,101945.22
2023-01-07T05:32:09.182Z,101941.88
2023-01-07T05:34:39.041Z,101945.28
2023-01-07T05:37:06.471Z,101952.63
2023-01-07T05:39:35.453Z,101954.66
2023-01-07T05:42:05.561Z,101948.19
2023-01-07T05:44:33.107Z,101952.91
2023-01-07T05:47:00.475Z,101951.03
2023-01-07T05:49:27.784Z,101945.22
2023-01-07T05:51:55.198Z,101943.91
2023-01-07T05:54:22.958Z,101943.66
2023-01-07T05:56:50.358Z,101946.94
2023-01-07T05:59:17.770Z,101956.09
2023-01-07T06:01:45.100Z,101947.91
2023-01-07T06:04:12.958Z,101949.69
2023-01-07T06:06:40.693Z,101949.31
2023-01-07T06:09:08.048Z,101948.81
2023-01-07T06:11:35.416Z,101953.41
2023-01-07T06:14:03.698Z,101951.53
2023-01-07T06:16:30.969Z,101947.59
2023-01-07T06:18:58.446Z,101948.88
2023-01-07T06:21:26.272Z,101954.66
2023-01-07T06:23:53.601Z,101951.97
2023-01-07T06:26:20.915Z,101944.72
2023-01-07T06:28:48.763Z,101943.91
2023-01-07T06:31:16.566Z,101942.59
2023-01-07T06:33:45.173Z,101935.88
2023-01-07T06:36:12.912Z,101946.59
2023-01-07T06:38:41.684Z,101944.13
2023-01-07T06:41:08.978Z,101947.66
2023-01-07T06:43:36.679Z,101946.81
2023-01-07T06:46:04.304Z,101950.28
2023-01-07T06:48:31.754Z,101944.75
2023-01-07T06:50:59.274Z,101942.84
2023-01-07T06:53:27.033Z,101940.84
2023-01-07T06:55:54.409Z,101952.78
2023-01-07T06:58:21.952Z,101952.31
2023-01-07T07:00:49.845Z,101944.16
2023-01-07T07:03:17.494Z,101944.47
2023-01-07T07:05:45.523Z,101951.84
2023-01-07T07:08:13.377Z,101953.06
2023-01-07T07:10:40.915Z,101952.38
2023-01-07T07:13:08.713Z,101946.50
2023-01-07T07:15:36.119Z,101955.53
2023-01-07T07:18:04.290Z,101956.44
2023-01-07T07:20:32.844Z,101962.91
2023-01-07T07:23:00.651Z,101955.03
2023-01-07T07:25:28.084Z,101959.50
2023-01-07T07:27:55.886Z,101950.72
2023-01-07T07:30:23.184Z,101950.19
2023-01-07T07:33:12.659Z,101954.19
2023-01-07T07:35:41.172Z,101956.59
2023-01-07T07:38:08.637Z,101955.53
2023-01-07T07:40:37.274Z,101959.63
2023-01-07T07:43:11.628Z,101963.97
2023-01-07T07:45:43.327Z,101959.97
2023-01-07T07:48:12.311Z,101961.97
2023-01-07T07:50:40.168Z,101962.50
2023-01-07T07:53:10.352Z,101965.78
2023-01-07T07:55:38.364Z,101960.19
2023-01-07T07:58:06.165Z,101959.41
2023-01-07T08:00:33.670Z,101963.66
2023-01-07T08:03:01.270Z,101962.25
2023-01-07T08:05:28.773Z,101953.97
2023-01-07T08:07:56.746Z,101962.81
2023-01-07T08:10:24.796Z,101951.66
2023-01-07T08:12:52.653Z,101961.75
2023-01-07T08:15:20.142Z,101952.81
2023-01-07T08:17:47.475Z,101956.28
2023-01-07T08:20:14.938Z,101959.75
2023-01-07T08:22:42.460Z,101957.00
2023-01-07T08:25:10.053Z,101960.47
2023-01-07T08:27:37.361Z,101963.78
2023-01-07T08:30:05.431Z,101962.13
2023-01-07T08:32:32.859Z,101979.16
2023-01-07T08:35:00.272Z,101970.38
2023-01-07T08:37:29.320Z,101973.25
2023-01-07T08:39:56.709Z,101973.78
2023-01-07T08:42:24.047Z,101971.91
2023-01-07T08:44:51.485Z,101973.53
2023-01-07T08:47:18.823Z,101968.72
2023-01-07T08:49:46.693Z,101973.81
2023-01-07T08:52:14.506Z,101968.38
2023-01-07T08:54:42.311Z,101966.63
2023-01-07T08:57:10.123Z,101966.44
2023-01-07T08:59:38.835Z,101962.97
2023-01-07T09:02:19.119Z,101968.72
2023-01-07T09:04:47.475Z,101971.63
2023-01-07T09:07:14.783Z,101966.94
2023-01-07T09:09:43.119Z,101974.88
2023-01-07T09:12:11.168Z,101980.31
2023-01-07T09:14:38.778Z,101980.50
2023-01-07T09:17:06.602Z,101966.31
2023-01-07T09:19:33.999Z,101972.00
2023-01-07T09:22:01.747Z,101970.91
2023-01-07T09:24:29.070Z,101975.38
2023-01-07T09:26:56.800Z,101969.13
2023-01-07T09:29:24.208Z,101966.63
2023-01-07T09:31:51.542Z,101980.78
2023-01-07T09:34:18.881Z,101976.75
2023-01-07T09:36:46.335Z,101970.66
2023-01-07T09:39:14.301Z,101969.06
2023-01-07T09:41:41.639Z,101972.03
2023-01-07T09:44:12.133Z,101969.41
2023-01-07T09:46:39.736Z,101972.19
2023-01-07T09:49:17.538Z,101960.50
2023-01-07T09:52:08.702Z,101970.88
2023-01-07T09:54:37.378Z,101976.22
2023-01-07T09:57:05.842Z,101974.97
2023-01-07T09:59:33.765Z,101964.94
2023-01-07T10:02:04.561Z,101966.66
2023-01-07T10:04:43.389Z,101973.63
2023-01-07T10:07:20.037Z,101964.81
2023-01-07T10:09:47.475Z,101955.50
2023-01-07T10:12:17.966Z,101958.44
2023-01-07T10:14:56.444Z,101946.25
2023-01-07T10:17:37.199Z,101947.19
2023-01-07T10:20:12.417Z,101944.56
2023-01-07T10:22:47.698Z,101939.63
2023-01-07T10:25:35.956Z,101932.84
2023-01-07T10:28:06.675Z,101934.84
2023-01-07T10:30:37.310Z,101932.88
2023-01-07T10:33:16.763Z,101935.91
2023-01-07T10:35:46.392Z,101928.88
2023-01-07T10:38:18.220Z,101922.53
2023-01-07T10:41:08.911Z,101920.47
2023-01-07T10:43:57.177Z,101919.38
2023-01-07T10:46:36.691Z,101913.94
2023-01-07T10:49:04.072Z,101915.63
2023-01-07T10:51:34.496Z,101907.44
2023-01-07T10:54:21.120Z,101901.28
2023-01-07T10:56:51.929Z,101908.09
2023-01-07T10:59:21.068Z,101892.91
2023-01-07T11:01:58.854Z,101896.94
2023-01-07T11:04:26.772Z,101885.66
2023-01-07T11:06:59.739Z,101888.13
2023-01-07T11:09:44.099Z,101884.72
2023-01-07T11:12:26.600Z,101890.91
2023-01-07T11:14:56.875Z,101876.25
2023-01-07T11:17:27.999Z,101879.09
2023-01-07T11:19:56.574Z,101880.34
2023-01-07T11:22:26.864Z,101873.56
2023-01-07T11:24:54.948Z,101860.34
2023-01-07T11:27:24.563Z,101865.03
2023-01-07T11:30:05.122Z,101861.94
2023-01-07T11:32:34.675Z,101853.56
2023-01-07T11:35:04.157Z,101849.00
2023-01-07T11:37:33.435Z,101842.88
2023-01-07T11:40:03.239Z,101841.19
2023-01-07T11:42:40.451Z,101846.69
2023-01-07T11:45:28.636Z,101845.09
2023-01-07T11:47:56.175Z,101834.91
2023-01-07T11:50:33.313Z,101840.34
2023-01-07T11:53:15.918Z,101828.63
2023-01-07T11:55:57.141Z,101816.56
2023-01-07T11:58:28.585Z,101818.97
2023-01-07T12:01:12.559Z,101813.09
2023-01-07T12:03:43.217Z,101807.63
2023-01-07T12:06:25.845Z,101813.97
2023-01-07T12:08:55.417Z,101807.25
2023-01-07T12:11:29.326Z,101806.72
2023-01-07T12:14:01.247Z,101804.03
2023-01-07T12:16:29.023Z,101793.59
2023-01-07T12:19:20.092Z,101800.69
2023-01-07T12:22:10.541Z,101789.81
2023-01-07T12:24:58.158Z,101783.41
2023-01-07T12:27:32.343Z,101785.97
2023-01-07T12:29:59.800Z,101778.19
2023-01-07T12:32:56.955Z,101784.41
2023-01-07T12:35:26.831Z,101775.44
2023-01-07T12:37:59.207Z,101772.84
2023-01-07T12:40:30.810Z,101771.53
2023-01-07T12:43:13.451Z,101768.97
2023-01-07T12:45:48.600Z,101767.50
2023-01-07T12:48:24.249Z,101764.88
2023-01-07T12:50:53.254Z,101762.34
2023-01-07T12:53:28.118Z,101763.03
2023-01-07T12:56:07.764Z,101761.22
2023-01-07T12:58:51.684Z,101758.47
2023-01-07T13:01:20.288Z,101751.41
2023-01-07T13:03:57.363Z,101755.94
2023-01-07T13:06:30.682Z,101750.84
2023-01-07T13:09:02.569Z,101751.41
2023-01-07T13:12:03.005Z,101747.16
2023-01-07T13:14:38.090Z,101749.88
2023-01-07T13:17:28.575Z,101742.22
2023-01-07T13:19:56.385Z,101751.09
2023-01-07T13:22:32.901Z,101743.63
2023-01-07T13:25:12.466Z,101735.09
2023-01-07T13:27:58.630Z,101740.69
2023-01-07T13:30:29.264Z,101733.53
2023-01-07T13:33:02.616Z,101736.47
2023-01-07T13:35:31.014Z,101735.16
2023-01-07T13:38:11.749Z,101724.75
2023-01-07T13:41:01.200Z,101723.22
2023-01-07T13:43:34.782Z,101720.75
2023-01-07T13:46:04.627Z,101726.44
2023-01-07T13:48:34.749Z,101725.44
2023-01-07T13:51:04.523Z,101733.53
2023-01-07T13:53:46.311Z,101731.06
2023-01-07T13:56:16.665Z,101731.88
2023-01-07T13:58:45.071Z,101727.00
2023-01-07T14:01:14.606Z,101722.13
2023-01-07T14:03:43.585Z,101724.38
2023-01-07T14:06:20.757Z,101725.31
2023-01-07T14:08:53.203Z,101729.06
2023-01-07T14:11:42.091Z,101725.25
2023-01-07T14:14:21.996Z,101724.56
2023-01-07T14:16:57.133Z,101721.28
2023-01-07T14:19:40.610Z,101722.59
2023-01-07T14:22:17.517Z,101730.50
2023-01-07T14:24:48.419Z,101728.81
2023-01-07T14:27:28.150Z,101730.06
2023-01-07T14:30:15.383Z,101735.63
2023-01-07T14:32:44.085Z,101736.59
2023-01-07T14:35:11.354Z,101740.56
2023-01-07T14:37:38.853Z,101742.53
2023-01-07T14:40:24.775Z,101742.84
2023-01-07T14:42:58.733Z,101739.19
2023-01-07T14:45:41.417Z,101742.00
2023-01-07T14:48:08.788Z,101736.34
2023-01-07T14:50:44.004Z,101738.28
2023-01-07T14:53:46.563Z,101746.69
2023-01-07T14:56:21.511Z,101735.16
2023-01-07T14:59:00.765Z,101737.34
2023-01-07T15:01:39.136Z,101733.47
2023-01-07T15:04:25.740Z,101735.66
2023-01-07T15:06:57.194Z,101730.63
2023-01-07T15:09:46.132Z,101730.13
2023-01-07T15:12:38.703Z,101732.56
2023-01-07T15:15:45.546Z,101730.56
2023-01-07T15:18:13.131Z,101727.56
2023-01-07T15:20:53.622Z,101720.09
2023-01-07T15:23:28.133Z,101728.09
2023-01-07T15:26:11.374Z,101728.94
2023-01-07T15:28:56.002Z,101728.09
2023-01-07T15:31:34.936Z,101719.22
2023-01-07T15:34:13.627Z,101727.94
2023-01-07T15:36:43.607Z,101723.44
2023-01-07T15:39:26.056Z,101730.31
2023-01-07T15:41:54.316Z,101714.06
2023-01-07T15:44:29.092Z,101714.97
2023-01-07T15:47:27.592Z,101711.41
2023-01-07T15:49:55.042Z,101719.28
2023-01-07T15:52:27.919Z,101715.72
2023-01-07T15:54:55.654Z,101716.81
2023-01-07T15:57:31.943Z,101712.03
2023-01-07T15:59:59.553Z,101708.66
2023-01-07T16:02:30.365Z,101703.09
2023-01-07T16:04:59.820Z,101714.75
2023-01-07T16:07:28.978Z,101710.50
2023-01-07T16:09:57.805Z,101716.91
2023-01-07T16:12:29.207Z,101718.44
2023-01-07T16:14:57.449Z,101719.78
2023-01-07T16:17:25.867Z,101719.91
2023-01-07T16:20:12.626Z,101717.47
2023-01-07T16:22:41.263Z,101721.28
2023-01-07T16:25:12.353Z,101721.16
2023-01-07T16:27:40.310Z,101714.28
2023-01-07T16:30:15.261Z,101717.81
2023-01-07T16:32:44.117Z,101716.34
2023-01-07T16:35:17.166Z,101719.44
2023-01-07T16:37:46.219Z,101718.66
2023-01-07T16:40:20.399Z,101718.47
2023-01-07T16:42:49.511Z,101717.28
2023-01-07T16:45:27.527Z,101715.75
2023-01-07T16:48:14.500Z,101720.16
2023-01-07T16:50:43.092Z,101708.09
2023-01-07T16:53:21.767Z,101708.44
2023-01-07T16:55:49.996Z,101704.31
2023-01-07T16:58:28.978Z,101705.03
2023-01-07T17:00:58.208Z,101707.91
2023-01-07T17:03:26.441Z,101707.56
2023-01-07T17:06:07.296Z,101706.34
2023-01-07T17:08:35.594Z,101698.63
2023-01-07T17:11:06.013Z,101707.66
2023-01-07T17:13:34.892Z,101702.94
2023-01-07T17:16:14.821Z,101702.47
2023-01-07T17:18:42.494Z,101705.09
2023-01-07T17:21:29.928Z,101699.69
2023-01-07T17:23:58.121Z,101701.63
2023-01-07T17:26:28.441Z,101706.34
2023-01-07T17:28:57.339Z,101715.50
2023-01-07T17:31:25.340Z,101714.34
2023-01-07T17:33:53.818Z,101712.81
2023-01-07T17:36:22.877Z,101716.97
2023-01-07T17:38:50.488Z,101710.72
2023-01-07T17:41:37.929Z,101710.13
2023-01-07T17:44:07.612Z,101712.16
2023-01-07T17:46:35.631Z,101717.34
2023-01-07T17:49:03.128Z,101719.19
2023-01-07T17:51:32.882Z,101710.41
2023-01-07T17:54:00.528Z,101719.41
2023-01-07T17:56:28.092Z,101718.44
2023-01-07T17:58:56.305Z,101714.44
2023-01-07T18:01:24.989Z,101718.06
2023-01-07T18:03:53.318Z,101720.09
2023-01-07T18:06:25.234Z,101717.00
2023-01-07T18:08:53.468Z,101717.41
2023-01-07T18:11:40.856Z,101712.50
2023-01-07T18:14:09.879Z,101715.66
2023-01-07T18:16:37.680Z,101718.66
2023-01-07T18:19:05.709Z,101719.38
2023-01-07T18:21:33.666Z,101714.97
2023-01-07T18:24:01.997Z,101714.56
2023-01-07T18:26:29.734Z,101714.19
2023-01-07T18:28:57.707Z,101717.06
2023-01-07T18:31:25.921Z,101711.63
2023-01-07T18:33:53.747Z,101711.00
2023-01-07T18:36:21.662Z,101708.72
2023-01-07T18:38:49.862Z,101712.06
2023-01-07T18:41:17.974Z,101716.53
2023-01-07T18:43:45.591Z,101717.84
2023-01-07T18:46:14.698Z,101711.50
2023-01-07T18:48:44.995Z,101717.59
2023-01-07T18:51:13.234Z,101712.19
2023-01-07T18:53:40.978Z,101712.25
2023-01-07T18:56:11.938Z,101708.88
2023-01-07T18:58:39.860Z,101707.31
2023-01-07T19:01:10.239Z,101701.72
2023-01-07T19:03:38.816Z,101705.22
2023-01-07T19:06:09.546Z,101697.41
2023-01-07T19:08:38.560Z,101694.72
2023-01-07T19:11:10.080Z,101702.44
2023-01-07T19:13:37.708Z,101707.44
2023-01-07T19:16:06.261Z,101702.94
2023-01-07T19:18:34.013Z,101699.09
2023-01-07T19:21:05.093Z,101701.03
2023-01-07T19:23:33.157Z,101700.44
2023-01-07T19:26:02.611Z,101705.19
2023-01-07T19:28:31.797Z,101691.06
2023-01-07T19:31:11.465Z,101689.00
2023-01-07T19:33:39.929Z,101682.22
2023-01-07T19:36:12.427Z,101689.84
2023-01-07T19:38:42.680Z,101685.78
2023-01-07T19:41:18.126Z,101685.38
2023-01-07T19:43:50.249Z,101683.63
2023-01-07T19:46:18.211Z,101687.72
2023-01-07T19:48:49.427Z,101688.50
2023-01-07T19:51:17.000Z,101696.84
2023-01-07T19:53:44.864Z,101696.44
2023-01-07T19:56:15.547Z,101690.09
2023-01-07T19:58:43.016Z,101687.78
2023-01-07T20:01:12.278Z,101684.00
2023-01-07T20:03:40.219Z,101688.81
2023-01-07T20:06:09.979Z,101697.16
2023-01-07T20:08:38.033Z,101700.41
2023-01-07T20:11:06.207Z,101698.84
2023-01-07T20:13:34.388Z,101695.44
2023-01-07T20:16:10.254Z,101693.81
2023-01-07T20:18:41.575Z,101696.28
2023-01-07T20:21:10.508Z,101693.88
2023-01-07T20:23:39.377Z,101695.38
2023-01-07T20:26:09.521Z,101702.81
2023-01-07T20:28:37.485Z,101703.00
2023-01-07T20:31:06.075Z,101689.44
2023-01-07T20:33:34.367Z,101695.44
2023-01-07T20:36:03.245Z,101686.13
2023-01-07T20:38:31.480Z,101684.31
2023-01-07T20:40:59.449Z,101693.03
2023-01-07T20:43:27.580Z,101692.69
2023-01-07T20:45:59.568Z,101694.72
2023-01-07T20:48:27.568Z,101691.06
2023-01-07T20:50:55.449Z,101691.44
2023-01-07T20:53:23.580Z,101694.66
2023-01-07T20:56:00.783Z,101691.38
2023-01-07T20:58:30.423Z,101685.19
2023-01-07T21:00:58.929Z,101681.88
2023-01-07T21:03:30.596Z,101670.06
2023-01-07T21:05:59.052Z,101677.53
2023-01-07T21:08:26.794Z,101677.63
2023-01-07T21:10:54.478Z,101669.88
2023-01-07T21:13:23.594Z,101661.19
2023-01-07T21:15:51.851Z,101666.16
2023-01-07T21:18:19.324Z,101666.22
2023-01-07T21:20:48.093Z,101667.38
2023-01-07T21:23:15.445Z,101658.44
2023-01-07T21:25:47.074Z,101664.16
2023-01-07T21:28:15.084Z,101658.06
2023-01-07T21:30:42.401Z,101656.81
2023-01-07T21:33:09.725Z,101656.53
2023-01-07T21:35:40.719Z,101649.31
2023-01-07T21:38:08.486Z,101651.72
2023-01-07T21:40:37.511Z,101649.03
2023-01-07T21:43:05.037Z,101648.63
2023-01-07T21:45:32.722Z,101650.03
2023-01-07T21:48:00.099Z,101640.25
2023-01-07T21:50:30.332Z,101637.72
2023-01-07T21:53:00.298Z,101633.88
2023-01-07T21:55:27.917Z,101636.78
2023-01-07T21:57:55.389Z,101637.78
2023-01-07T22:00:23.252Z,101642.66
2023-01-07T22:02:50.710Z,101643.09
2023-01-07T22:05:18.412Z,101643.72
2023-01-07T22:07:46.276Z,101638.81
2023-01-07T22:10:13.732Z,101643.78
2023-01-07T22:12:41.517Z,101637.13
2023-01-07T22:15:09.516Z,101636.19
2023-01-07T22:17:37.384Z,101634.38
2023-01-07T22:20:05.334Z,101635.84
2023-01-07T22:22:32.733Z,101637.34
2023-01-07T22:25:00.196Z,101635.84
2023-01-07T22:27:28.068Z,101627.88
2023-01-07T22:29:56.256Z,101635.16
2023-01-07T22:32:24.007Z,101636.00
2023-01-07T22:34:51.737Z,101633.47
2023-01-07T22:37:20.926Z,101638.47
2023-01-07T22:39:53.706Z,101639.00
2023-01-07T22:42:22.863Z,101641.19
2023-01-07T22:44:53.026Z,101642.25
2023-01-07T22:47:27.326Z,101638.47
2023-01-07T22:49:55.651Z,101629.88
2023-01-07T22:52:23.539Z,101624.25
2023-01-07T22:54:51.955Z,101618.25
2023-01-07T22:57:19.581Z,101614.50
2023-01-07T22:59:47.481Z,101603.59
2023-01-07T23:02:15.222Z,101596.81
2023-01-07T23:04:42.581Z,101599.50
2023-01-07T23:07:10.784Z,101587.63
2023-01-07T23:09:38.768Z,101584.66
2023-01-07T23:12:06.243Z,101586.66
2023-01-07T23:14:33.629Z,101594.66
2023-01-07T23:17:01.673Z,101598.31
2023-01-07T23:19:31.942Z,101586.38
2023-01-07T23:21:59.657Z,101581.75
2023-01-07T23:24:27.149Z,101582.78
2023-01-07T23:26:54.987Z,101576.94
2023-01-07T23:29:22.790Z,101573.88
2023-01-07T23:31:50.745Z,101575.63
2023-01-07T23:34:19.719Z,101569.06
2023-01-07T23:36:47.190Z,101558.75
2023-01-07T23:39:15.135Z,101560.94
2023-01-07T23:41:42.496Z,101553.28
2023-01-07T23:44:11.047Z,101554.50
2023-01-07T23:46:38.471Z,101547.06
2023-01-07T23:49:06.212Z,101549.03
2023-01-07T23:51:33.986Z,101555.34
2023-01-07T23:54:01.359Z,101544.53
2023-01-07T23:56:29.389Z,101547.25
2023-01-07T23:58:56.909Z,101563.88
